Time;durP1;ratioP1;P1;durP2;ratioP2;P2;SDS_P1;SDS_P2;PMS_P1;PMS_P2;Temp;Humidity;BMP_temperature;BMP_pressure;BME280_temperature;BME280_humidity;BME280_pressure;Samples;Min_cycle;Max_cycle;Signal;HPM_P1;HPM_P2
2020/12/25 00:02:13;;;;;;;5.27;4.30;;;;;;;3.52;82.96;98125.07;119196;1150;65121;-80
2020/12/25 00:04:42;;;;;;;5.37;4.00;;;;;;;3.52;83.21;98121.59;118796;1150;65055;-79
2020/12/25 00:07:09;;;;;;;5.07;3.80;;;;;;;3.52;83.09;98119.80;119223;1150;65267;-78
2020/12/25 00:09:37;;;;;;;5.17;4.13;;;;;;;3.53;83.39;98131.22;119271;1151;65155;-80
2020/12/25 00:12:08;;;;;;;3.80;3.03;;;;;;;3.54;83.21;98127.64;119282;1150;65089;-82
2020/12/25 00:14:38;;;;;;;3.83;3.40;;;;;;;3.54;83.55;98129.43;118906;1150;65191;-82
2020/12/25 00:17:07;;;;;;;4.57;3.50;;;;;;;3.53;83.25;98136.48;119003;1150;65063;-82
2020/12/25 00:19:36;;;;;;;3.57;3.20;;;;;;;3.54;83.18;98137.33;118927;1150;65111;-82
2020/12/25 00:22:05;;;;;;;4.33;3.37;;;;;;;3.54;83.68;98137.33;118939;1151;65028;-80
2020/12/25 00:24:34;;;;;;;3.70;2.60;;;;;;;3.55;82.90;98144.29;118790;1150;65181;-82
2020/12/25 00:27:00;;;;;;;3.67;2.63;;;;;;;3.57;83.29;98145.07;118744;1151;65140;-81
2020/12/25 00:29:26;;;;;;;4.83;3.73;;;;;;;3.56;83.46;98138.95;119047;1151;65228;-81
2020/12/25 00:31:54;;;;;;;4.93;3.40;;;;;;;3.58;83.56;98144.13;119314;1150;65199;-83
2020/12/25 00:34:21;;;;;;;4.10;3.70;;;;;;;3.60;83.42;98148.39;119144;1150;65216;-82
2020/12/25 00:36:48;;;;;;;4.15;3.45;;;;;;;3.61;83.43;98155.38;119314;1150;65129;-81
2020/12/25 00:39:16;;;;;;;4.57;3.83;;;;;;;3.62;83.13;98154.44;119100;1151;65174;-81
2020/12/25 00:41:45;;;;;;;;;;;;;;;3.62;83.37;98159.70;119410;1150;65114;-81
2020/12/25 00:44:14;;;;;;;6.33;4.40;;;;;;;3.61;83.40;98158.02;119370;1151;65146;-81
2020/12/25 00:46:42;;;;;;;5.10;3.67;;;;;;;3.62;83.74;98172.88;119105;1151;65172;-81
2020/12/25 00:49:09;;;;;;;4.53;4.10;;;;;;;3.60;83.40;98166.83;119361;1150;65036;-81
2020/12/25 00:51:35;;;;;;;4.80;3.20;;;;;;;3.63;83.70;98176.36;119135;1150;65104;-81
2020/12/25 00:54:03;;;;;;;3.67;3.10;;;;;;;3.62;83.53;98187.84;119378;1151;65127;-81
2020/12/25 00:56:31;;;;;;;4.33;3.15;;;;;;;3.62;83.32;98178.14;119309;1150;65117;-80
2020/12/25 00:58:59;;;;;;;5.87;4.17;;;;;;;3.62;83.65;98183.41;119052;1151;65097;-79
2020/12/25 01:01:28;;;;;;;6.13;3.90;;;;;;;3.62;83.85;98186.05;119376;1150;65114;-80
2020/12/25 01:03:56;;;;;;;4.30;3.13;;;;;;;3.64;83.58;98185.98;119397;1151;65104;-80
2020/12/25 01:06:24;;;;;;;3.77;3.00;;;;;;;3.61;83.97;98188.78;119351;1151;65236;-81
2020/12/25 01:08:53;;;;;;;4.00;2.80;;;;;;;3.61;83.50;98196.69;119261;1151;65127;-80
2020/12/25 01:11:27;;;;;;;4.60;3.03;;;;;;;3.63;83.81;98197.44;119130;1151;65072;-81
2020/12/25 01:13:55;;;;;;;5.13;3.73;;;;;;;3.63;83.97;98198.28;119366;1150;65494;-82
2020/12/25 01:16:22;;;;;;;6.13;4.27;;;;;;;3.65;83.74;98208.75;119065;1151;65126;-79
2020/12/25 01:18:50;;;;;;;6.07;4.90;;;;;;;3.66;83.95;98199.91;118959;1150;65102;-81
2020/12/25 01:21:20;;;;;;;5.62;4.67;;;;;;;3.65;83.68;98199.06;119059;1151;65133;-80
2020/12/25 01:23:47;;;;;;;6.17;4.60;;;;;;;3.65;83.69;98206.96;118729;1151;65539;-82
2020/12/25 01:26:13;;;;;;;4.83;4.07;;;;;;;3.64;83.88;98199.16;119369;1150;65146;-83
2020/12/25 01:28:41;;;;;;;4.57;3.90;;;;;;;3.63;84.25;98198.28;119207;1151;65239;-82
2020/12/25 01:31:08;;;;;;;5.57;3.97;;;;;;;3.64;84.19;98205.27;119316;1150;65165;-80
2020/12/25 01:33:36;;;;;;;5.97;5.10;;;;;;;3.68;84.20;98205.95;119149;1150;65203;-81
2020/12/25 01:36:06;;;;;;;8.03;5.20;;;;;;;3.67;83.86;98206.90;119126;1151;65223;-83
2020/12/25 01:38:32;;;;;;;6.33;5.03;;;;;;;3.67;83.97;98205.11;119382;1150;65095;-81
2020/12/25 01:41:02;;;;;;;5.17;4.20;;;;;;;3.66;84.02;98203.42;119204;1151;65245;-81
2020/12/25 01:43:29;;;;;;;6.33;4.43;;;;;;;3.68;84.35;98208.59;119160;1151;65124;-81
2020/12/25 01:45:58;;;;;;;6.05;4.55;;;;;;;3.69;84.30;98197.98;119378;1150;65436;-81
2020/12/25 01:48:25;;;;;;;7.77;5.60;;;;;;;3.71;84.06;98203.16;119318;1151;65102;-81
2020/12/25 01:50:51;;;;;;;7.40;6.47;;;;;;;3.67;84.33;98205.11;119148;1151;65130;-81
2020/12/25 01:53:21;;;;;;;7.90;6.70;;;;;;;3.65;84.45;98206.96;119305;1150;65164;-82
2020/12/25 01:55:48;;;;;;;7.67;6.87;;;;;;;3.62;84.45;98201.86;119305;1150;65126;-81
2020/12/25 01:58:16;;;;;;;7.40;6.57;;;;;;;3.59;84.74;98206.44;119327;1151;65123;-80
2020/12/25 02:00:46;;;;;;;6.45;5.85;;;;;;;3.56;84.62;98217.14;119328;1150;65043;-80
2020/12/25 02:03:16;;;;;;;7.00;6.03;;;;;;;3.55;84.84;98215.42;119328;1150;65040;-78
2020/12/25 02:05:44;;;;;;;5.92;4.97;;;;;;;3.56;84.70;98217.14;119238;1150;65143;-79
2020/12/25 02:08:12;;;;;;;6.70;5.40;;;;;;;3.55;85.07;98226.80;119265;1150;65075;-80
2020/12/25 02:10:39;;;;;;;5.85;5.20;;;;;;;3.54;85.07;98233.02;119065;1151;65037;-80
2020/12/25 02:13:07;;;;;;;8.15;5.20;;;;;;;3.50;85.10;98231.45;119276;1150;65140;-79
2020/12/25 02:15:35;;;;;;;5.87;4.77;;;;;;;3.48;85.20;98230.70;119232;1151;65127;-80
2020/12/25 02:18:03;;;;;;;5.80;5.20;;;;;;;3.50;85.22;98234.09;119052;1151;65181;-80
2020/12/25 02:20:30;;;;;;;5.50;4.47;;;;;;;3.51;85.47;98222.64;119124;1150;65154;-81
2020/12/25 02:22:57;;;;;;;5.97;5.30;;;;;;;3.51;85.06;98223.48;118462;1151;65136;-82
2020/12/25 02:25:23;;;;;;;5.47;4.87;;;;;;;3.53;85.40;98218.15;118792;1151;65579;-84
2020/12/25 02:27:50;;;;;;;6.30;5.40;;;;;;;3.53;85.38;98220.78;118695;1150;65046;-81
2020/12/25 02:30:16;;;;;;;7.17;5.47;;;;;;;3.52;85.11;98229.59;118720;1151;65197;-80
2020/12/25 02:32:43;;;;;;;6.25;5.65;;;;;;;3.53;85.06;98228.69;118745;1150;65124;-80
2020/12/25 02:35:09;;;;;;;5.63;4.93;;;;;;;3.56;85.34;98236.43;118713;1151;65138;-80
2020/12/25 02:37:36;;;;;;;7.55;5.90;;;;;;;3.57;85.20;98234.64;118545;1150;65139;-80
2020/12/25 02:40:03;;;;;;;6.60;5.47;;;;;;;3.59;85.19;98238.06;119347;1150;65114;-80
2020/12/25 02:42:29;;;;;;;6.23;5.70;;;;;;;3.62;85.22;98227.36;119257;1151;65158;-79
2020/12/25 02:44:56;;;;;;;6.90;6.20;;;;;;;3.63;85.35;98229.05;119114;1151;65163;-81
2020/12/25 02:47:22;;;;;;;7.30;6.43;;;;;;;3.62;85.46;98240.53;119309;1150;65191;-82
2020/12/25 02:49:49;;;;;;;8.10;7.03;;;;;;;3.59;85.55;98238.91;119259;1151;65031;-83
2020/12/25 02:52:15;;;;;;;8.90;8.00;;;;;;;3.59;85.49;98251.23;119262;1151;65098;-82
2020/12/25 02:54:41;;;;;;;7.43;6.70;;;;;;;3.56;84.87;98251.39;119312;1150;65148;-82
2020/12/25 02:57:08;;;;;;;11.20;7.85;;;;;;;3.54;85.23;98254.09;118794;1151;65031;-80
2020/12/25 02:59:34;;;;;;;7.90;7.10;;;;;;;3.54;85.22;98258.52;118527;1151;65131;-80
2020/12/25 03:02:00;;;;;;;10.00;8.40;;;;;;;3.52;85.08;98259.42;118749;1150;65134;-82
2020/12/25 03:04:27;;;;;;;10.53;8.23;;;;;;;3.52;85.55;98266.48;118968;1151;65124;-81
2020/12/25 03:06:53;;;;;;;9.60;7.97;;;;;;;3.47;85.38;98264.06;119050;1151;65258;-81
2020/12/25 03:09:20;;;;;;;9.03;8.00;;;;;;;3.47;85.11;98271.13;119261;1150;65101;-81
2020/12/25 03:11:46;;;;;;;8.70;7.10;;;;;;;3.47;85.16;98266.70;119280;1150;65130;-82
2020/12/25 03:14:12;;;;;;;8.40;7.47;;;;;;;3.48;85.42;98268.42;119051;1151;65159;-81
2020/12/25 03:16:39;;;;;;;9.10;7.63;;;;;;;3.52;85.52;98275.23;118694;1151;65027;-80
2020/12/25 03:19:05;;;;;;;8.10;7.30;;;;;;;3.52;85.02;98272.59;119156;1150;65054;-82
2020/12/25 03:21:31;;;;;;;8.55;7.50;;;;;;;3.50;85.01;98265.70;119283;1150;65149;-82
2020/12/25 03:23:58;;;;;;;9.27;8.37;;;;;;;3.48;84.93;98276.33;119271;1150;65222;-81
2020/12/25 03:26:24;;;;;;;8.67;7.77;;;;;;;3.47;85.01;98271.13;119033;1151;65180;-81
2020/12/25 03:28:51;;;;;;;8.30;7.60;;;;;;;3.47;84.67;98273.76;119145;1151;65200;-82
2020/12/25 03:31:17;;;;;;;8.67;7.87;;;;;;;3.46;85.21;98278.17;119123;1150;65175;-82
2020/12/25 03:33:44;;;;;;;9.37;8.37;;;;;;;3.50;84.86;98276.23;119063;1151;65121;-83
2020/12/25 03:36:10;;;;;;;9.10;8.20;;;;;;;3.51;84.84;98275.32;118996;1151;65226;-81
2020/12/25 03:38:37;;;;;;;9.93;8.93;;;;;;;3.50;84.96;98285.02;119075;1151;65117;-81
2020/12/25 03:41:03;;;;;;;10.67;9.63;;;;;;;3.48;84.97;98283.38;119314;1151;65192;-84
2020/12/25 03:43:30;;;;;;;11.03;9.93;;;;;;;3.47;84.69;98290.41;119324;1151;65123;-82
2020/12/25 03:45:56;;;;;;;9.63;8.63;;;;;;;3.48;84.90;98296.55;119085;1151;65193;-82
2020/12/25 03:48:22;;;;;;;10.10;8.97;;;;;;;3.49;84.71;98300.88;119283;1151;65105;-82
2020/12/25 03:50:49;;;;;;;11.27;9.03;;;;;;;3.50;84.53;98300.81;119255;1150;65098;-83
2020/12/25 03:53:15;;;;;;;9.90;8.10;;;;;;;3.50;84.69;98287.64;119058;1151;65312;-82
2020/12/25 03:55:42;;;;;;;8.90;8.10;;;;;;;3.51;84.57;98293.77;119331;1151;65235;-81
2020/12/25 03:58:16;;;;;;;8.58;7.67;;;;;;;3.50;84.61;98290.28;119076;1151;65220;-83
2020/12/25 04:00:51;;;;;;;7.70;7.00;;;;;;;3.52;84.57;98290.19;119283;1151;65095;-82
2020/12/25 04:03:17;;;;;;;10.60;7.80;;;;;;;3.54;84.70;98298.03;119086;1151;65185;-82
2020/12/25 04:05:44;;;;;;;8.53;7.57;;;;;;;3.58;84.86;98299.56;119311;1150;65150;-83
2020/12/25 04:08:10;;;;;;;9.00;8.00;;;;;;;3.58;84.50;98297.80;119129;1151;65137;-82
2020/12/25 04:10:36;;;;;;;9.57;8.67;;;;;;;3.57;84.61;98303.98;119278;1150;65133;-82
2020/12/25 04:13:05;;;;;;;10.30;9.40;;;;;;;3.57;84.44;98300.50;119248;1151;65223;-82
2020/12/25 04:15:31;;;;;;;9.50;8.70;;;;;;;3.53;83.98;98291.91;119348;1148;65067;-82
2020/12/25 04:17:58;;;;;;;10.07;9.17;;;;;;;3.54;84.31;98300.66;119314;1150;66660;-82
2020/12/25 04:20:24;;;;;;;11.80;10.70;;;;;;;3.55;84.65;98313.73;119313;1151;65108;-81
2020/12/25 04:22:51;;;;;;;10.40;9.20;;;;;;;3.58;84.97;98303.08;118989;1151;65117;-82
2020/12/25 04:25:17;;;;;;;11.80;10.70;;;;;;;3.61;84.76;98313.45;119254;1150;65053;-81
2020/12/25 04:27:44;;;;;;;12.07;10.77;;;;;;;3.63;84.35;98316.00;119290;1150;65146;-81
2020/12/25 04:30:10;;;;;;;12.23;11.03;;;;;;;3.61;84.24;98320.52;119239;1150;65191;-83
2020/12/25 04:32:37;;;;;;;10.80;9.25;;;;;;;3.58;84.11;98318.88;118835;1151;65552;-80
2020/12/25 04:35:04;;;;;;;10.33;9.33;;;;;;;3.60;84.56;98326.69;119041;1151;65220;-81
2020/12/25 04:37:31;;;;;;;9.73;8.83;;;;;;;3.63;84.29;98326.53;119299;1150;65163;-81
2020/12/25 04:39:57;;;;;;;9.87;8.87;;;;;;;3.63;84.48;98330.02;119273;1151;65063;-81
2020/12/25 04:42:27;;;;;;;10.65;9.55;;;;;;;3.66;84.51;98329.02;119055;1150;65158;-81
2020/12/25 04:44:54;;;;;;;11.78;10.68;;;;;;;3.65;84.43;98330.80;119323;1151;65636;-81
2020/12/25 04:47:21;;;;;;;11.87;10.63;;;;;;;3.65;84.34;98332.59;119319;1150;65106;-81
2020/12/25 04:49:48;;;;;;;12.63;11.17;;;;;;;3.63;84.89;98334.44;119166;1150;65214;-81
2020/12/25 04:52:14;;;;;;;11.83;10.73;;;;;;;3.61;84.32;98337.17;119051;1151;65172;-81
2020/12/25 04:54:41;;;;;;;12.80;11.50;;;;;;;3.62;84.40;98343.28;119263;1150;65038;-81
2020/12/25 04:57:07;;;;;;;11.80;10.70;;;;;;;3.66;84.48;98347.45;119049;1151;65236;-81
2020/12/25 04:59:34;;;;;;;12.43;11.23;;;;;;;3.69;84.56;98347.33;119284;1150;65578;-81
2020/12/25 05:02:01;;;;;;;13.55;12.00;;;;;;;3.70;84.50;98344.61;119341;1150;65123;-81
2020/12/25 05:04:27;;;;;;;12.87;11.67;;;;;;;3.69;84.53;98345.55;119109;1151;65219;-81
2020/12/25 05:06:55;;;;;;;15.10;12.90;;;;;;;3.65;84.55;98346.61;119303;1150;65082;-81
2020/12/25 05:09:26;;;;;;;15.60;13.90;;;;;;;3.65;84.78;98341.34;119291;1150;65110;-81
2020/12/25 05:11:55;;;;;;;13.80;12.30;;;;;;;3.64;84.53;98341.44;119118;1151;65092;-84
2020/12/25 05:14:29;;;;;;;12.77;11.47;;;;;;;3.63;84.59;98343.19;119155;1151;65127;-82
2020/12/25 05:16:57;;;;;;;12.73;11.57;;;;;;;3.64;84.79;98349.34;118836;1150;65188;-81
2020/12/25 05:19:31;;;;;;;13.97;12.57;;;;;;;3.64;84.41;98363.36;118904;1151;65242;-81
2020/12/25 05:22:00;;;;;;;14.13;12.80;;;;;;;3.61;84.53;98350.34;119158;1150;65344;-80
2020/12/25 05:24:36;;;;;;;15.13;13.60;;;;;;;3.58;84.63;98363.67;118747;1151;65233;-82
2020/12/25 05:27:02;;;;;;;17.23;15.53;;;;;;;3.56;84.42;98365.52;118818;1151;65152;-81
2020/12/25 05:29:29;;;;;;;15.13;13.60;;;;;;;3.53;84.57;98368.31;118733;1150;65162;-81
2020/12/25 05:31:55;;;;;;;15.27;12.50;;;;;;;3.51;84.47;98373.64;118712;1150;65123;-80
2020/12/25 05:34:23;;;;;;;13.30;10.77;;;;;;;3.49;84.15;98377.27;118865;1151;65210;-82
2020/12/25 05:36:54;;;;;;;9.70;8.80;;;;;;;3.49;84.59;98385.17;119161;1149;65031;-81
2020/12/25 05:39:34;;;;;;;12.13;10.83;;;;;;;3.51;84.26;98392.08;118814;1150;65111;-81
2020/12/25 05:42:04;;;;;;;12.90;11.60;;;;;;;3.47;83.95;98390.50;119114;1150;65111;-81
2020/12/25 05:44:35;;;;;;;;;;;;;;;3.46;84.12;98399.34;119293;1150;65113;-81
2020/12/25 05:47:02;;;;;;;13.43;11.97;;;;;;;3.41;83.79;98398.70;119328;1150;65116;-81
2020/12/25 05:49:30;;;;;;;12.07;9.80;;;;;;;3.39;84.12;98400.55;119313;1150;65101;-81
2020/12/25 05:51:57;;;;;;;8.93;8.13;;;;;;;3.37;83.56;98404.19;119310;1150;65122;-81
2020/12/25 05:54:25;;;;;;;10.13;9.13;;;;;;;3.37;83.83;98398.92;119303;1151;65149;-81
2020/12/25 05:56:57;;;;;;;11.15;9.15;;;;;;;3.39;84.26;98402.34;119089;1151;65165;-80
2020/12/25 05:59:32;;;;;;;15.05;11.65;;;;;;;3.36;83.83;98405.97;119170;1150;65262;-83
2020/12/25 06:02:05;;;;;;;14.10;12.07;;;;;;;3.36;84.11;98405.12;119181;1150;65119;-82
2020/12/25 06:04:33;;;;;;;13.17;11.30;;;;;;;3.34;83.88;98402.55;119291;1150;65120;-81
2020/12/25 06:07:00;;;;;;;13.83;10.47;;;;;;;3.30;83.76;98414.17;119371;1150;65225;-82
2020/12/25 06:09:30;;;;;;;11.40;9.53;;;;;;;3.29;83.56;98409.81;119153;1151;65094;-83
2020/12/25 06:11:57;;;;;;;10.35;9.23;;;;;;;3.29;83.87;98413.33;119134;1150;65223;-81
2020/12/25 06:14:24;;;;;;;10.37;9.20;;;;;;;3.32;83.94;98408.81;119302;1151;65670;-83
2020/12/25 06:17:09;;;;;;;10.95;9.90;;;;;;;3.35;83.93;98422.71;119064;1150;65500;-83
2020/12/25 06:19:58;;;;;;;13.90;12.10;;;;;;;3.39;83.99;98423.41;118836;1150;65092;-83
2020/12/25 06:22:30;;;;;;;15.37;12.37;;;;;;;3.41;83.88;98427.69;118841;1150;65044;-83
2020/12/25 06:25:06;;;;;;;15.27;13.40;;;;;;;3.43;84.37;98443.42;118632;1150;65133;-83
2020/12/25 06:27:33;;;;;;;13.50;12.05;;;;;;;3.44;84.04;98432.80;118808;1150;65114;-83
2020/12/25 06:30:03;;;;;;;13.50;12.20;;;;;;;3.43;84.41;98439.01;118831;1150;65120;-83
2020/12/25 06:32:31;;;;;;;11.90;10.67;;;;;;;3.42;83.94;98439.95;118589;1151;65124;-82
2020/12/25 06:34:59;;;;;;;10.27;9.37;;;;;;;3.40;83.92;98448.84;118865;1150;65119;-82
2020/12/25 06:37:30;;;;;;;10.30;9.30;;;;;;;3.42;83.83;98449.60;119047;1151;65191;-82
2020/12/25 06:40:06;;;;;;;12.80;11.20;;;;;;;3.40;84.15;98449.69;119149;1151;65217;-84
2020/12/25 06:42:35;;;;;;;13.30;11.90;;;;;;;3.41;83.82;98455.81;119359;1150;65509;-82
2020/12/25 06:45:06;;;;;;;12.57;11.27;;;;;;;3.38;83.91;98461.22;119172;1151;65146;-82
2020/12/25 06:47:35;;;;;;;10.97;9.83;;;;;;;3.35;83.71;98456.10;119364;1150;65156;-83
2020/12/25 06:50:12;;;;;;;11.55;10.20;;;;;;;3.31;83.72;98458.00;119353;1151;65110;-83
2020/12/25 06:52:56;;;;;;;10.83;9.83;;;;;;;3.28;83.88;98458.16;119291;1150;65034;-81
2020/12/25 06:55:24;;;;;;;9.60;8.67;;;;;;;3.28;83.96;98464.27;119133;1150;65187;-83
2020/12/25 06:57:55;;;;;;;11.37;10.27;;;;;;;3.28;84.01;98464.27;119313;1151;65137;-83
2020/12/25 07:00:25;;;;;;;12.00;10.80;;;;;;;3.32;84.00;98465.00;119081;1151;65293;-83
2020/12/25 07:02:51;;;;;;;13.73;12.17;;;;;;;3.35;84.08;98477.17;119090;1150;65529;-81
2020/12/25 07:05:17;;;;;;;13.97;11.97;;;;;;;3.37;84.08;98483.20;119301;1151;65095;-82
2020/12/25 07:07:44;;;;;;;15.33;12.30;;;;;;;3.38;83.95;98490.20;119361;1150;65118;-81
2020/12/25 07:10:12;;;;;;;14.83;12.87;;;;;;;3.40;84.27;98493.63;119299;1150;65649;-81
2020/12/25 07:12:39;;;;;;;15.60;13.97;;;;;;;3.40;83.90;98506.80;119112;1150;65262;-82
2020/12/25 07:15:07;;;;;;;17.30;15.50;;;;;;;3.41;83.96;98504.06;119109;1151;65264;-82
2020/12/25 07:17:35;;;;;;;15.10;13.40;;;;;;;3.42;84.18;98513.70;119351;1150;65130;-82
2020/12/25 07:20:07;;;;;;;14.15;12.70;;;;;;;3.42;83.89;98511.06;119098;1151;65147;-79
2020/12/25 07:22:34;;;;;;;13.43;12.03;;;;;;;3.44;84.28;98509.19;118867;1150;65107;-81
2020/12/25 07:25:08;;;;;;;13.73;12.33;;;;;;;3.51;84.15;98504.52;119720;1150;65204;-81
2020/12/25 07:27:34;;;;;;;17.00;15.20;;;;;;;3.56;84.36;98514.84;119590;1150;65107;-84
2020/12/25 07:30:01;;;;;;;15.20;12.40;;;;;;;3.60;84.00;98509.34;119315;1150;65101;-83
2020/12/25 07:32:27;;;;;;;16.63;14.60;;;;;;;3.61;83.91;98507.58;119292;1150;65156;-81
2020/12/25 07:34:54;;;;;;;18.45;13.60;;;;;;;3.62;84.16;98517.19;119279;1151;65143;-82
2020/12/25 07:37:20;;;;;;;15.15;13.65;;;;;;;3.61;83.93;98511.06;119299;1150;65165;-82
2020/12/25 07:39:46;;;;;;;14.97;13.37;;;;;;;3.62;83.95;98518.03;119327;1151;65223;-82
2020/12/25 07:42:13;;;;;;;13.10;11.70;;;;;;;3.63;83.95;98517.09;119105;1151;65200;-82
2020/12/25 07:44:41;;;;;;;12.90;11.60;;;;;;;3.65;83.98;98511.77;119170;1150;65066;-82
2020/12/25 07:47:09;;;;;;;13.93;12.50;;;;;;;3.70;84.21;98512.41;119023;1151;65272;-82
2020/12/25 07:49:37;;;;;;;15.95;14.15;;;;;;;3.73;84.03;98521.02;118475;1151;65210;-80
2020/12/25 07:52:04;;;;;;;17.43;14.47;;;;;;;3.78;84.25;98518.17;119163;1151;65137;-81
2020/12/25 07:54:31;;;;;;;18.73;15.90;;;;;;;3.80;84.10;98513.69;119271;1150;65126;-81
2020/12/25 07:56:58;;;;;;;15.00;13.50;;;;;;;3.81;84.44;98509.27;118877;1151;65125;-81
2020/12/25 07:59:25;;;;;;;17.13;13.77;;;;;;;3.82;83.85;98522.39;118809;1150;65103;-81
2020/12/25 08:01:52;;;;;;;22.10;17.43;;;;;;;3.82;83.85;98525.02;118942;1151;65054;-81
2020/12/25 08:04:18;;;;;;;25.25;21.85;;;;;;;3.84;83.75;98531.05;119011;1151;65153;-82
2020/12/25 08:06:45;;;;;;;21.13;17.53;;;;;;;3.89;83.89;98533.48;119286;1151;65478;-83
2020/12/25 08:09:15;;;;;;;20.33;17.97;;;;;;;3.93;83.50;98525.36;119087;1150;65040;-82
2020/12/25 08:11:41;;;;;;;21.30;17.92;;;;;;;3.99;83.97;98532.12;119130;1151;65541;-81
2020/12/25 08:14:11;;;;;;;21.10;17.40;;;;;;;4.05;83.87;98536.23;119351;1151;65197;-82
2020/12/25 08:16:41;;;;;;;19.67;16.93;;;;;;;4.10;83.84;98542.15;119337;1151;65132;-82
2020/12/25 08:19:07;;;;;;;18.90;15.40;;;;;;;4.08;83.40;98547.52;119358;1150;65548;-82
2020/12/25 08:21:38;;;;;;;18.20;14.33;;;;;;;4.07;83.14;98552.84;119429;1151;65143;-82
2020/12/25 08:24:06;;;;;;;15.97;12.43;;;;;;;4.06;83.32;98553.79;119124;1151;65126;-81
2020/12/25 08:26:39;;;;;;;15.60;12.47;;;;;;;4.07;83.48;98548.42;119403;1150;65271;-82
2020/12/25 08:29:06;;;;;;;17.05;13.75;;;;;;;4.16;83.59;98553.27;119316;1151;65223;-80
2020/12/25 08:31:40;;;;;;;17.87;13.77;;;;;;;4.21;83.23;98555.67;119105;1150;65187;-81
2020/12/25 08:34:14;;;;;;;17.40;14.10;;;;;;;4.24;83.25;98560.82;119306;1150;65127;-81
2020/12/25 08:36:41;;;;;;;16.63;13.77;;;;;;;4.30;83.38;98565.79;119235;1151;65114;-81
2020/12/25 08:39:08;;;;;;;15.43;12.27;;;;;;;4.36;83.13;98567.27;119315;1150;65188;-83
2020/12/25 08:41:35;;;;;;;12.13;10.40;;;;;;;4.42;83.12;98569.60;118946;1150;65117;-82
2020/12/25 08:44:13;;;;;;;13.07;11.77;;;;;;;4.43;82.84;98570.48;118504;1150;65094;-81
2020/12/25 08:46:41;;;;;;;13.80;11.20;;;;;;;4.40;82.93;98572.33;118770;1151;65111;-81
2020/12/25 08:49:08;;;;;;;16.17;12.80;;;;;;;4.37;82.86;98577.77;119337;1150;65031;-81
2020/12/25 08:51:35;;;;;;;16.27;13.67;;;;;;;4.42;83.14;98574.88;119073;1151;65194;-81
2020/12/25 08:54:02;;;;;;;17.63;13.87;;;;;;;4.51;83.09;98584.15;119114;1151;65216;-81
2020/12/25 08:56:29;;;;;;;16.20;13.85;;;;;;;4.57;83.00;98579.41;119205;1151;65143;-81
2020/12/25 08:58:56;;;;;;;15.33;12.80;;;;;;;4.65;82.78;98580.83;119127;1151;65124;-81
2020/12/25 09:01:23;;;;;;;13.97;12.43;;;;;;;4.65;82.36;98586.10;119103;1151;65117;-82
2020/12/25 09:03:50;;;;;;;13.13;11.10;;;;;;;4.69;82.63;98585.88;118729;1150;65089;-83
2020/12/25 09:06:17;;;;;;;17.97;12.47;;;;;;;4.75;82.68;98593.48;119179;1150;65210;-81
2020/12/25 09:08:44;;;;;;;15.07;12.73;;;;;;;4.82;82.22;98591.41;118864;1151;65212;-80
2020/12/25 09:11:12;;;;;;;15.23;12.27;;;;;;;4.82;82.28;98599.33;118487;1150;65634;-80
2020/12/25 09:13:39;;;;;;;14.30;11.20;;;;;;;4.86;82.22;98592.10;118806;1150;65121;-81
2020/12/25 09:16:07;;;;;;;12.53;9.90;;;;;;;4.81;81.85;98589.68;118493;1151;65265;-80
2020/12/25 09:18:35;;;;;;;10.90;8.90;;;;;;;4.82;82.00;98596.69;119111;1149;65126;-81
2020/12/25 09:21:03;;;;;;;10.30;8.90;;;;;;;4.87;81.92;98591.16;119161;1151;65118;-82
2020/12/25 09:23:30;;;;;;;12.95;9.80;;;;;;;4.89;81.93;98591.94;118898;1151;65143;-81
2020/12/25 09:25:58;;;;;;;11.00;9.80;;;;;;;4.92;82.25;98591.78;118709;1150;65127;-80
2020/12/25 09:28:26;;;;;;;13.63;11.03;;;;;;;4.91;81.97;98598.01;118730;1150;65111;-81
2020/12/25 09:30:56;;;;;;;14.27;11.23;;;;;;;4.93;81.73;98594.36;118984;1151;65182;-83
2020/12/25 09:33:24;;;;;;;13.00;10.93;;;;;;;4.95;82.15;98589.86;119212;1150;65121;-82
2020/12/25 09:35:51;;;;;;;22.23;16.87;;;;;;;4.96;81.96;98596.84;119086;1150;65226;-81
2020/12/25 09:38:18;;;;;;;12.53;10.57;;;;;;;4.95;81.85;98589.86;119085;1150;65163;-81
2020/12/25 09:40:48;;;;;;;16.10;11.90;;;;;;;4.90;81.78;98591.87;118966;1151;65121;-81
2020/12/25 09:43:14;;;;;;;;;;;;;;;4.81;81.73;98587.89;119295;1150;65076;-81
2020/12/25 09:45:41;;;;;;;12.90;11.13;;;;;;;4.73;81.83;98591.86;119271;1150;65720;-81
2020/12/25 09:48:07;;;;;;;15.00;12.83;;;;;;;4.68;81.99;98592.07;119102;1150;65059;-81
2020/12/25 09:50:34;;;;;;;16.77;13.37;;;;;;;4.62;81.95;98581.83;119321;1150;65047;-83
2020/12/25 09:53:00;;;;;;;14.63;12.23;;;;;;;4.60;82.06;98587.17;119121;1150;65134;-84
2020/12/25 09:55:27;;;;;;;14.60;11.60;;;;;;;4.55;82.23;98590.97;119318;1151;65119;-85
2020/12/25 09:57:54;;;;;;;13.13;10.47;;;;;;;4.55;82.23;98594.45;119139;1150;65119;-82
2020/12/25 10:00:21;;;;;;;13.85;11.60;;;;;;;4.57;82.46;98589.97;119270;1150;65168;-85
2020/12/25 10:02:48;;;;;;;16.50;11.55;;;;;;;4.60;82.02;98591.60;118868;1151;65121;-87
2020/12/25 10:05:15;;;;;;;17.53;12.60;;;;;;;4.61;82.35;98591.54;119363;1151;65265;-83
2020/12/25 10:07:42;;;;;;;14.73;12.40;;;;;;;4.68;82.50;98593.86;118950;1151;65646;-87
2020/12/25 10:10:09;;;;;;;14.93;11.97;;;;;;;4.70;82.34;98590.22;119234;1151;65260;-84
2020/12/25 10:12:36;;;;;;;14.10;12.03;;;;;;;4.72;82.60;98591.00;119297;1150;65121;-81
2020/12/25 10:15:03;;;;;;;15.30;12.50;;;;;;;4.71;82.38;98591.91;119568;1151;65220;-81
2020/12/25 10:17:30;;;;;;;13.00;11.67;;;;;;;4.71;82.42;98588.42;119513;1150;65153;-86
2020/12/25 10:19:59;;;;;;;15.70;11.37;;;;;;;4.68;82.41;98596.50;118730;1151;65092;-90
2020/12/25 10:22:26;;;;;;;15.97;13.40;;;;;;;4.56;82.59;98597.97;119799;1151;65130;-84
2020/12/25 10:24:53;;;;;;;15.97;12.43;;;;;;;4.46;83.04;98600.20;119163;1151;65117;-83
2020/12/25 10:30:02;;;;;;;15.00;12.10;;;;;;;4.34;83.07;98606.05;122716;1108;63909;-87
2020/12/25 10:32:32;;;;;;;15.35;12.25;;;;;;;4.32;83.35;98602.66;118912;1150;65147;-89
2020/12/25 10:34:58;;;;;;;15.77;12.43;;;;;;;4.34;83.31;98606.91;119125;1151;65200;-80
2020/12/25 10:37:24;;;;;;;16.00;13.33;;;;;;;4.42;83.47;98598.63;118617;1151;65090;-85
2020/12/25 10:39:51;;;;;;;17.12;13.95;;;;;;;4.53;83.33;98598.09;118979;1151;65181;-85
2020/12/25 10:42:18;;;;;;;14.35;12.60;;;;;;;4.64;83.25;98605.52;119119;1151;65178;-86
2020/12/25 10:44:44;;;;;;;15.30;12.70;;;;;;;4.77;82.80;98611.91;119144;1151;65175;-85
2020/12/25 10:47:12;;;;;;;13.37;11.50;;;;;;;4.88;82.61;98604.30;119110;1151;65132;-87
2020/12/25 10:49:39;;;;;;;15.43;12.27;;;;;;;4.99;82.91;98609.03;119013;1151;65095;-86
2020/12/25 10:52:06;;;;;;;13.90;12.30;;;;;;;5.07;82.52;98593.66;119048;1151;65098;-84
2020/12/25 10:54:32;;;;;;;13.53;11.63;;;;;;;5.06;82.27;98607.80;118972;1151;65306;-85
2020/12/25 10:56:58;;;;;;;12.95;11.55;;;;;;;5.06;82.25;98610.45;119052;1151;65162;-85
2020/12/25 10:59:25;;;;;;;13.80;11.67;;;;;;;5.06;82.14;98618.37;119046;1151;65201;-85
2020/12/25 11:01:51;;;;;;;15.70;10.83;;;;;;;5.00;82.10;98621.30;118857;1151;65118;-86
2020/12/25 11:04:17;;;;;;;11.20;9.97;;;;;;;4.96;82.15;98607.40;119036;1151;65146;-86
2020/12/25 11:06:44;;;;;;;14.13;10.63;;;;;;;4.96;82.49;98607.40;119129;1151;65255;-85
2020/12/25 11:09:11;;;;;;;14.97;11.83;;;;;;;4.92;82.63;98602.34;119099;1151;65653;-86
2020/12/25 11:11:41;;;;;;;13.80;11.45;;;;;;;4.87;82.70;98607.00;118977;1151;65286;-90
2020/12/25 11:14:09;;;;;;;14.03;12.50;;;;;;;4.84;82.75;98605.36;118723;1151;65153;-82
2020/12/25 11:16:37;;;;;;;12.73;11.10;;;;;;;4.83;82.60;98615.08;118748;1151;65198;-83
2020/12/25 11:19:07;;;;;;;14.63;12.50;;;;;;;4.83;82.90;98614.23;118934;1151;65118;-84
2020/12/25 11:21:35;;;;;;;12.63;11.30;;;;;;;4.85;82.87;98612.38;119065;1151;65120;-84
2020/12/25 11:24:04;;;;;;;13.93;11.77;;;;;;;4.86;82.78;98607.94;119106;1151;65118;-84
2020/12/25 11:26:33;;;;;;;14.85;10.60;;;;;;;4.83;82.72;98607.16;119295;1151;65095;-83
2020/12/25 11:29:04;;;;;;;15.63;12.87;;;;;;;4.86;82.73;98606.16;118828;1151;65095;-83
2020/12/25 11:31:32;;;;;;;15.03;12.77;;;;;;;4.88;82.70;98606.94;119258;1150;65129;-82